sensor_id;sensor_type;location;lat;lon;timestamp;P1;durP1;ratioP1;P2;durP2;ratioP2
19219;SDS011;9744;49.364;7.484;2024-03-23T00:54:26;28.25;;;15.63;;
19219;SDS011;9744;49.364;7.484;2024-03-23T00:56:53;28.50;;;15.80;;
19219;SDS011;9744;49.364;7.484;2024-03-23T00:59:19;27.20;;;16.17;;
19219;SDS011;9744;49.364;7.484;2024-03-23T01:01:47;30.08;;;16.45;;
19219;SDS011;9744;49.364;7.484;2024-03-23T01:04:14;35.30;;;18.27;;
19219;SDS011;9744;49.364;7.484;2024-03-23T01:06:41;29.88;;;17.30;;
19219;SDS011;9744;49.364;7.484;2024-03-23T01:09:07;32.53;;;18.10;;
19219;SDS011;9744;49.364;7.484;2024-03-23T01:11:37;32.42;;;18.02;;
19219;SDS011;9744;49.364;7.484;2024-03-23T01:14:03;33.10;;;17.98;;
19219;SDS011;9744;49.364;7.484;2024-03-23T01:16:31;29.38;;;17.73;;
19219;SDS011;9744;49.364;7.484;2024-03-23T01:18:57;34.55;;;19.77;;
19219;SDS011;9744;49.364;7.484;2024-03-23T01:21:25;32.20;;;18.58;;
19219;SDS011;9744;49.364;7.484;2024-03-23T01:23:51;33.22;;;19.23;;
19219;SDS011;9744;49.364;7.484;2024-03-23T01:26:18;38.75;;;20.40;;
19219;SDS011;9744;49.364;7.484;2024-03-23T01:28:46;37.45;;;20.50;;
19219;SDS011;9744;49.364;7.484;2024-03-23T01:31:13;36.22;;;20.35;;
19219;SDS011;9744;49.364;7.484;2024-03-23T01:33:41;34.30;;;19.50;;
19219;SDS011;9744;49.364;7.484;2024-03-23T01:36:08;35.10;;;19.17;;
19219;SDS011;9744;49.364;7.484;2024-03-23T01:38:34;34.10;;;20.10;;
19219;SDS011;9744;49.364;7.484;2024-03-23T01:41:02;37.15;;;19.25;;
19219;SDS011;9744;49.364;7.484;2024-03-23T01:43:28;32.53;;;19.38;;
19219;SDS011;9744;49.364;7.484;2024-03-23T01:45:56;35.00;;;19.73;;
19219;SDS011;9744;49.364;7.484;2024-03-23T01:48:23;36.58;;;19.65;;
19219;SDS011;9744;49.364;7.484;2024-03-23T01:50:50;31.58;;;19.25;;
19219;SDS011;9744;49.364;7.484;2024-03-23T01:53:16;35.85;;;20.73;;
19219;SDS011;9744;49.364;7.484;2024-03-23T01:55:47;36.50;;;19.85;;
19219;SDS011;9744;49.364;7.484;2024-03-23T01:58:13;40.10;;;21.40;;
19219;SDS011;9744;49.364;7.484;2024-03-23T02:00:41;39.67;;;21.35;;
19219;SDS011;9744;49.364;7.484;2024-03-23T02:05:52;39.95;;;21.45;;
19219;SDS011;9744;49.364;7.484;2024-03-23T02:08:20;40.72;;;21.20;;
19219;SDS011;9744;49.364;7.484;2024-03-23T02:10:48;41.95;;;22.25;;
19219;SDS011;9744;49.364;7.484;2024-03-23T02:13:15;43.90;;;21.55;;
19219;SDS011;9744;49.364;7.484;2024-03-23T02:15:44;42.47;;;22.60;;
19219;SDS011;9744;49.364;7.484;2024-03-23T02:18:10;41.20;;;21.40;;
19219;SDS011;9744;49.364;7.484;2024-03-23T02:20:39;45.50;;;22.77;;
19219;SDS011;9744;49.364;7.484;2024-03-23T02:23:10;41.22;;;21.98;;
19219;SDS011;9744;49.364;7.484;2024-03-23T02:25:40;45.13;;;22.65;;
19219;SDS011;9744;49.364;7.484;2024-03-23T02:28:06;44.05;;;23.42;;
19219;SDS011;9744;49.364;7.484;2024-03-23T02:30:33;42.20;;;22.38;;
19219;SDS011;9744;49.364;7.484;2024-03-23T02:33:01;48.70;;;22.30;;
19219;SDS011;9744;49.364;7.484;2024-03-23T02:35:28;43.83;;;22.20;;
19219;SDS011;9744;49.364;7.484;2024-03-23T02:37:55;39.30;;;21.20;;
19219;SDS011;9744;49.364;7.484;2024-03-23T02:40:24;41.63;;;22.60;;
19219;SDS011;9744;49.364;7.484;2024-03-23T02:42:50;47.08;;;21.73;;
19219;SDS011;9744;49.364;7.484;2024-03-23T02:45:19;44.90;;;21.00;;
19219;SDS011;9744;49.364;7.484;2024-03-23T02:47:45;39.10;;;20.83;;
19219;SDS011;9744;49.364;7.484;2024-03-23T02:50:17;43.67;;;21.75;;
19219;SDS011;9744;49.364;7.484;2024-03-23T02:52:43;44.70;;;21.05;;
19219;SDS011;9744;49.364;7.484;2024-03-23T02:55:11;46.65;;;21.70;;
19219;SDS011;9744;49.364;7.484;2024-03-23T02:57:39;43.50;;;21.60;;
19219;SDS011;9744;49.364;7.484;2024-03-23T03:00:07;39.15;;;20.25;;
19219;SDS011;9744;49.364;7.484;2024-03-23T03:02:36;40.40;;;19.85;;
19219;SDS011;9744;49.364;7.484;2024-03-23T03:05:04;37.33;;;20.27;;
19219;SDS011;9744;49.364;7.484;2024-03-23T03:07:32;33.25;;;19.02;;
19219;SDS011;9744;49.364;7.484;2024-03-23T03:12:52;34.17;;;16.50;;
19219;SDS011;9744;49.364;7.484;2024-03-23T03:15:20;25.77;;;15.18;;
19219;SDS011;9744;49.364;7.484;2024-03-23T03:17:47;29.08;;;14.43;;
19219;SDS011;9744;49.364;7.484;2024-03-23T03:20:15;30.80;;;15.13;;
19219;SDS011;9744;49.364;7.484;2024-03-23T03:22:44;24.70;;;13.32;;
19219;SDS011;9744;49.364;7.484;2024-03-23T03:25:14;31.10;;;14.45;;
19219;SDS011;9744;49.364;7.484;2024-03-23T03:27:41;23.20;;;13.95;;
19219;SDS011;9744;49.364;7.484;2024-03-23T03:30:11;28.40;;;14.77;;
19219;SDS011;9744;49.364;7.484;2024-03-23T03:32:38;24.17;;;14.07;;
19219;SDS011;9744;49.364;7.484;2024-03-23T03:38:26;21.58;;;12.00;;
19219;SDS011;9744;49.364;7.484;2024-03-23T03:40:53;16.40;;;10.40;;
19219;SDS011;9744;49.364;7.484;2024-03-23T03:43:20;14.85;;;8.77;;
19219;SDS011;9744;49.364;7.484;2024-03-23T03:45:52;13.35;;;8.52;;
19219;SDS011;9744;49.364;7.484;2024-03-23T03:48:19;13.40;;;8.02;;
19219;SDS011;9744;49.364;7.484;2024-03-23T03:50:46;15.25;;;7.45;;
19219;SDS011;9744;49.364;7.484;2024-03-23T03:53:12;14.20;;;8.05;;
19219;SDS011;9744;49.364;7.484;2024-03-23T03:55:39;11.43;;;7.43;;
19219;SDS011;9744;49.364;7.484;2024-03-23T03:58:05;12.07;;;6.72;;
19219;SDS011;9744;49.364;7.484;2024-03-23T04:00:33;10.25;;;6.38;;
19219;SDS011;9744;49.364;7.484;2024-03-23T04:03:03;9.45;;;6.13;;
19219;SDS011;9744;49.364;7.484;2024-03-23T04:05:34;10.85;;;7.45;;
19219;SDS011;9744;49.364;7.484;2024-03-23T04:08:00;11.68;;;7.68;;
19219;SDS011;9744;49.364;7.484;2024-03-23T04:10:27;9.40;;;6.68;;
19219;SDS011;9744;49.364;7.484;2024-03-23T04:12:53;11.02;;;7.90;;
19219;SDS011;9744;49.364;7.484;2024-03-23T04:15:21;10.13;;;6.10;;
19219;SDS011;9744;49.364;7.484;2024-03-23T04:17:47;11.73;;;6.60;;
19219;SDS011;9744;49.364;7.484;2024-03-23T04:28:41;3.63;;;2.60;;
19219;SDS011;9744;49.364;7.484;2024-03-23T04:31:09;3.50;;;1.92;;
19219;SDS011;9744;49.364;7.484;2024-03-23T04:36:40;3.22;;;1.90;;
19219;SDS011;9744;49.364;7.484;2024-03-23T04:39:08;2.28;;;1.70;;
19219;SDS011;9744;49.364;7.484;2024-03-23T04:41:35;1.60;;;1.40;;
19219;SDS011;9744;49.364;7.484;2024-03-23T04:44:03;1.48;;;1.30;;
19219;SDS011;9744;49.364;7.484;2024-03-23T04:46:31;1.92;;;1.40;;
19219;SDS011;9744;49.364;7.484;2024-03-23T04:48:57;2.03;;;1.42;;
19219;SDS011;9744;49.364;7.484;2024-03-23T04:51:24;1.45;;;1.10;;
19219;SDS011;9744;49.364;7.484;2024-03-23T04:53:50;1.33;;;1.23;;
19219;SDS011;9744;49.364;7.484;2024-03-23T04:56:18;1.65;;;0.80;;
19219;SDS011;9744;49.364;7.484;2024-03-23T04:58:46;0.93;;;0.93;;
19219;SDS011;9744;49.364;7.484;2024-03-23T05:01:13;3.50;;;1.50;;
19219;SDS011;9744;49.364;7.484;2024-03-23T05:03:41;1.88;;;1.00;;
19219;SDS011;9744;49.364;7.484;2024-03-23T05:06:07;1.27;;;0.80;;
19219;SDS011;9744;49.364;7.484;2024-03-23T05:08:34;1.27;;;1.00;;
19219;SDS011;9744;49.364;7.484;2024-03-23T05:11:00;0.68;;;0.68;;
19219;SDS011;9744;49.364;7.484;2024-03-23T05:13:28;2.95;;;0.90;;
19219;SDS011;9744;49.364;7.484;2024-03-23T05:15:54;0.63;;;0.63;;
19219;SDS011;9744;49.364;7.484;2024-03-23T05:18:23;0.70;;;0.70;;
19219;SDS011;9744;49.364;7.484;2024-03-23T05:20:55;2.17;;;0.68;;
19219;SDS011;9744;49.364;7.484;2024-03-23T05:23:22;1.17;;;0.50;;
19219;SDS011;9744;49.364;7.484;2024-03-23T05:28:46;0.85;;;0.80;;
19219;SDS011;9744;49.364;7.484;2024-03-23T05:31:22;0.70;;;0.57;;
19219;SDS011;9744;49.364;7.484;2024-03-23T05:33:50;1.75;;;0.50;;
19219;SDS011;9744;49.364;7.484;2024-03-23T05:36:17;1.40;;;0.50;;
19219;SDS011;9744;49.364;7.484;2024-03-23T05:38:44;0.88;;;0.55;;
19219;SDS011;9744;49.364;7.484;2024-03-23T05:41:12;0.57;;;0.57;;
19219;SDS011;9744;49.364;7.484;2024-03-23T05:46:36;1.00;;;0.40;;
19219;SDS011;9744;49.364;7.484;2024-03-23T05:49:04;0.82;;;0.68;;
19219;SDS011;9744;49.364;7.484;2024-03-23T05:51:31;0.60;;;0.60;;
19219;SDS011;9744;49.364;7.484;2024-03-23T05:53:57;0.45;;;0.40;;
19219;SDS011;9744;49.364;7.484;2024-03-23T05:56:25;0.50;;;0.50;;
19219;SDS011;9744;49.364;7.484;2024-03-23T05:58:51;3.40;;;0.82;;
19219;SDS011;9744;49.364;7.484;2024-03-23T06:01:19;0.50;;;0.50;;
19219;SDS011;9744;49.364;7.484;2024-03-23T06:03:46;0.55;;;0.50;;
19219;SDS011;9744;49.364;7.484;2024-03-23T06:06:20;0.43;;;0.43;;
19219;SDS011;9744;49.364;7.484;2024-03-23T06:08:46;0.88;;;0.60;;
19219;SDS011;9744;49.364;7.484;2024-03-23T06:11:14;0.60;;;0.60;;
19219;SDS011;9744;49.364;7.484;2024-03-23T06:13:40;0.50;;;0.50;;
19219;SDS011;9744;49.364;7.484;2024-03-23T06:16:08;2.58;;;0.80;;
19219;SDS011;9744;49.364;7.484;2024-03-23T06:18:35;0.57;;;0.57;;
19219;SDS011;9744;49.364;7.484;2024-03-23T06:21:03;1.20;;;0.65;;
19219;SDS011;9744;49.364;7.484;2024-03-23T06:23:30;1.27;;;0.60;;
19219;SDS011;9744;49.364;7.484;2024-03-23T06:25:58;0.50;;;0.50;;
19219;SDS011;9744;49.364;7.484;2024-03-23T06:28:24;0.50;;;0.50;;
19219;SDS011;9744;49.364;7.484;2024-03-23T06:30:51;1.38;;;0.60;;
19219;SDS011;9744;49.364;7.484;2024-03-23T06:33:18;1.27;;;0.80;;
19219;SDS011;9744;49.364;7.484;2024-03-23T06:35:49;1.58;;;0.70;;
19219;SDS011;9744;49.364;7.484;2024-03-23T06:38:17;0.93;;;0.75;;
19219;SDS011;9744;49.364;7.484;2024-03-23T06:40:46;4.45;;;1.27;;
19219;SDS011;9744;49.364;7.484;2024-03-23T06:43:14;2.17;;;1.15;;
19219;SDS011;9744;49.364;7.484;2024-03-23T06:45:41;4.03;;;1.40;;
19219;SDS011;9744;49.364;7.484;2024-03-23T06:48:08;3.25;;;1.10;;
19219;SDS011;9744;49.364;7.484;2024-03-23T06:50:37;2.70;;;1.27;;
19219;SDS011;9744;49.364;7.484;2024-03-23T06:53:04;5.00;;;1.70;;
19219;SDS011;9744;49.364;7.484;2024-03-23T06:55:33;2.33;;;1.50;;
19219;SDS011;9744;49.364;7.484;2024-03-23T06:58:01;3.42;;;1.80;;
19219;SDS011;9744;49.364;7.484;2024-03-23T07:00:29;7.10;;;2.70;;
19219;SDS011;9744;49.364;7.484;2024-03-23T07:02:58;6.53;;;2.33;;
19219;SDS011;9744;49.364;7.484;2024-03-23T07:05:30;9.85;;;2.55;;
19219;SDS011;9744;49.364;7.484;2024-03-23T07:07:56;10.32;;;2.47;;
19219;SDS011;9744;49.364;7.484;2024-03-23T07:10:25;12.75;;;3.17;;
19219;SDS011;9744;49.364;7.484;2024-03-23T07:12:54;6.28;;;3.50;;
19219;SDS011;9744;49.364;7.484;2024-03-23T07:15:25;10.45;;;3.10;;
19219;SDS011;9744;49.364;7.484;2024-03-23T07:17:53;10.98;;;3.40;;
19219;SDS011;9744;49.364;7.484;2024-03-23T07:20:23;7.68;;;3.38;;
19219;SDS011;9744;49.364;7.484;2024-03-23T07:22:51;17.17;;;3.95;;
19219;SDS011;9744;49.364;7.484;2024-03-23T07:25:18;13.70;;;3.53;;
19219;SDS011;9744;49.364;7.484;2024-03-23T07:27:48;11.75;;;3.97;;
19219;SDS011;9744;49.364;7.484;2024-03-23T07:30:16;11.60;;;4.65;;
19219;SDS011;9744;49.364;7.484;2024-03-23T07:32:45;6.93;;;3.90;;
19219;SDS011;9744;49.364;7.484;2024-03-23T07:35:22;19.27;;;5.97;;
19219;SDS011;9744;49.364;7.484;2024-03-23T07:37:52;11.63;;;4.40;;
19219;SDS011;9744;49.364;7.484;2024-03-23T07:40:22;11.80;;;4.88;;
19219;SDS011;9744;49.364;7.484;2024-03-23T07:42:49;12.82;;;4.55;;
19219;SDS011;9744;49.364;7.484;2024-03-23T07:45:15;15.88;;;5.72;;
19219;SDS011;9744;49.364;7.484;2024-03-23T07:47:42;15.07;;;4.95;;
19219;SDS011;9744;49.364;7.484;2024-03-23T07:50:11;13.00;;;4.85;;
19219;SDS011;9744;49.364;7.484;2024-03-23T07:52:38;12.00;;;4.93;;
19219;SDS011;9744;49.364;7.484;2024-03-23T07:55:05;9.23;;;3.90;;
19219;SDS011;9744;49.364;7.484;2024-03-23T08:03:50;17.10;;;5.97;;
19219;SDS011;9744;49.364;7.484;2024-03-23T08:06:17;16.80;;;5.70;;
19219;SDS011;9744;49.364;7.484;2024-03-23T08:08:45;12.65;;;5.00;;
19219;SDS011;9744;49.364;7.484;2024-03-23T08:11:14;19.48;;;5.63;;
19219;SDS011;9744;49.364;7.484;2024-03-23T08:13:41;14.68;;;5.85;;
19219;SDS011;9744;49.364;7.484;2024-03-23T08:16:09;15.07;;;6.18;;
19219;SDS011;9744;49.364;7.484;2024-03-23T08:18:36;16.23;;;6.50;;
19219;SDS011;9744;49.364;7.484;2024-03-23T08:21:06;16.80;;;6.93;;
19219;SDS011;9744;49.364;7.484;2024-03-23T08:23:34;15.40;;;6.00;;
19219;SDS011;9744;49.364;7.484;2024-03-23T08:26:02;19.15;;;5.78;;
19219;SDS011;9744;49.364;7.484;2024-03-23T08:28:30;20.38;;;6.78;;
19219;SDS011;9744;49.364;7.484;2024-03-23T08:30:57;18.73;;;5.80;;
19219;SDS011;9744;49.364;7.484;2024-03-23T08:33:28;17.52;;;5.32;;
19219;SDS011;9744;49.364;7.484;2024-03-23T08:35:56;13.70;;;6.15;;
19219;SDS011;9744;49.364;7.484;2024-03-23T08:38:25;13.32;;;5.63;;
19219;SDS011;9744;49.364;7.484;2024-03-23T08:49:03;10.75;;;5.20;;
19219;SDS011;9744;49.364;7.484;2024-03-23T08:51:30;11.10;;;5.60;;
19219;SDS011;9744;49.364;7.484;2024-03-23T08:53:58;17.25;;;5.60;;
19219;SDS011;9744;49.364;7.484;2024-03-23T08:56:25;13.63;;;5.53;;
19219;SDS011;9744;49.364;7.484;2024-03-23T08:58:51;17.88;;;6.22;;
19219;SDS011;9744;49.364;7.484;2024-03-23T09:01:19;20.20;;;6.47;;
19219;SDS011;9744;49.364;7.484;2024-03-23T09:03:45;21.08;;;7.00;;
19219;SDS011;9744;49.364;7.484;2024-03-23T09:06:13;17.58;;;5.45;;
19219;SDS011;9744;49.364;7.484;2024-03-23T09:08:40;15.95;;;5.70;;
19219;SDS011;9744;49.364;7.484;2024-03-23T09:11:09;14.82;;;5.03;;
19219;SDS011;9744;49.364;7.484;2024-03-23T09:13:37;19.75;;;5.95;;
19219;SDS011;9744;49.364;7.484;2024-03-23T09:16:05;15.57;;;5.63;;
19219;SDS011;9744;49.364;7.484;2024-03-23T09:18:32;15.88;;;5.63;;
19219;SDS011;9744;49.364;7.484;2024-03-23T09:21:01;16.00;;;5.40;;
19219;SDS011;9744;49.364;7.484;2024-03-23T09:23:27;12.60;;;4.47;;
19219;SDS011;9744;49.364;7.484;2024-03-23T09:25:54;13.25;;;4.88;;
19219;SDS011;9744;49.364;7.484;2024-03-23T09:28:22;12.23;;;4.93;;
19219;SDS011;9744;49.364;7.484;2024-03-23T09:33:39;14.70;;;5.60;;
19219;SDS011;9744;49.364;7.484;2024-03-23T10:13:03;14.73;;;3.58;;
19219;SDS011;9744;49.364;7.484;2024-03-23T10:15:33;11.82;;;4.00;;
19219;SDS011;9744;49.364;7.484;2024-03-23T10:18:03;14.25;;;4.10;;
19219;SDS011;9744;49.364;7.484;2024-03-23T10:20:47;10.40;;;3.78;;
19219;SDS011;9744;49.364;7.484;2024-03-23T10:23:16;11.50;;;3.10;;
19219;SDS011;9744;49.364;7.484;2024-03-23T10:25:43;12.38;;;4.10;;
19219;SDS011;9744;49.364;7.484;2024-03-23T10:28:12;8.85;;;3.40;;
19219;SDS011;9744;49.364;7.484;2024-03-23T10:30:45;13.25;;;4.53;;
19219;SDS011;9744;49.364;7.484;2024-03-23T10:33:11;9.02;;;2.97;;
19219;SDS011;9744;49.364;7.484;2024-03-23T10:35:40;9.60;;;3.35;;
19219;SDS011;9744;49.364;7.484;2024-03-23T10:38:06;8.38;;;2.70;;
19219;SDS011;9744;49.364;7.484;2024-03-23T10:40:35;13.18;;;2.40;;
19219;SDS011;9744;49.364;7.484;2024-03-23T10:43:04;4.75;;;1.30;;
19219;SDS011;9744;49.364;7.484;2024-03-23T10:45:40;2.25;;;1.20;;
19219;SDS011;9744;49.364;7.484;2024-03-23T10:48:06;2.22;;;1.02;;
19219;SDS011;9744;49.364;7.484;2024-03-23T10:50:34;2.65;;;1.27;;
19219;SDS011;9744;49.364;7.484;2024-03-23T10:53:00;5.85;;;1.38;;
19219;SDS011;9744;49.364;7.484;2024-03-23T10:55:28;4.40;;;1.20;;
19219;SDS011;9744;49.364;7.484;2024-03-23T10:57:56;4.53;;;1.25;;
19219;SDS011;9744;49.364;7.484;2024-03-23T11:00:25;5.25;;;1.50;;
19219;SDS011;9744;49.364;7.484;2024-03-23T11:02:53;4.50;;;1.73;;
19219;SDS011;9744;49.364;7.484;2024-03-23T11:05:30;6.10;;;1.80;;
19219;SDS011;9744;49.364;7.484;2024-03-23T11:07:58;7.35;;;1.73;;
19219;SDS011;9744;49.364;7.484;2024-03-23T11:10:31;5.88;;;1.70;;
19219;SDS011;9744;49.364;7.484;2024-03-23T11:12:59;4.75;;;1.35;;
19219;SDS011;9744;49.364;7.484;2024-03-23T11:15:51;5.15;;;1.55;;
19219;SDS011;9744;49.364;7.484;2024-03-23T11:35:06;11.18;;;2.20;;
19219;SDS011;9744;49.364;7.484;2024-03-23T11:37:35;5.25;;;2.13;;
19219;SDS011;9744;49.364;7.484;2024-03-23T11:40:16;6.90;;;1.73;;
19219;SDS011;9744;49.364;7.484;2024-03-23T11:42:44;7.53;;;1.48;;
19219;SDS011;9744;49.364;7.484;2024-03-23T11:45:10;5.90;;;1.65;;
19219;SDS011;9744;49.364;7.484;2024-03-23T11:47:39;7.15;;;2.05;;
19219;SDS011;9744;49.364;7.484;2024-03-23T12:01:28;3.63;;;1.50;;
19219;SDS011;9744;49.364;7.484;2024-03-23T12:03:55;4.45;;;1.90;;
19219;SDS011;9744;49.364;7.484;2024-03-23T12:06:22;5.90;;;2.15;;
19219;SDS011;9744;49.364;7.484;2024-03-23T12:08:51;5.80;;;1.85;;
19219;SDS011;9744;49.364;7.484;2024-03-23T12:11:18;6.55;;;1.95;;
19219;SDS011;9744;49.364;7.484;2024-03-23T12:13:48;6.18;;;2.28;;
19219;SDS011;9744;49.364;7.484;2024-03-23T12:16:16;5.88;;;2.25;;
19219;SDS011;9744;49.364;7.484;2024-03-23T12:18:47;6.88;;;2.03;;
19219;SDS011;9744;49.364;7.484;2024-03-23T12:21:15;7.18;;;2.65;;
19219;SDS011;9744;49.364;7.484;2024-03-23T12:23:46;5.22;;;1.80;;
19219;SDS011;9744;49.364;7.484;2024-03-23T12:26:14;5.00;;;2.05;;
19219;SDS011;9744;49.364;7.484;2024-03-23T12:28:43;6.45;;;1.50;;
19219;SDS011;9744;49.364;7.484;2024-03-23T12:31:14;6.75;;;1.42;;
19219;SDS011;9744;49.364;7.484;2024-03-23T12:33:41;6.22;;;1.48;;
19219;SDS011;9744;49.364;7.484;2024-03-23T12:36:09;9.45;;;1.48;;
19219;SDS011;9744;49.364;7.484;2024-03-23T12:38:36;3.17;;;1.70;;
19219;SDS011;9744;49.364;7.484;2024-03-23T12:41:03;3.50;;;1.30;;
19219;SDS011;9744;49.364;7.484;2024-03-23T12:43:31;4.40;;;1.15;;
19219;SDS011;9744;49.364;7.484;2024-03-23T12:45:57;4.88;;;1.40;;
19219;SDS011;9744;49.364;7.484;2024-03-23T12:48:25;3.90;;;1.30;;
19219;SDS011;9744;49.364;7.484;2024-03-23T12:50:55;5.30;;;1.50;;
19219;SDS011;9744;49.364;7.484;2024-03-23T12:53:24;8.20;;;1.88;;
19219;SDS011;9744;49.364;7.484;2024-03-23T12:55:51;4.57;;;1.40;;
19219;SDS011;9744;49.364;7.484;2024-03-23T12:58:18;7.82;;;2.72;;
19219;SDS011;9744;49.364;7.484;2024-03-23T13:00:45;3.03;;;1.30;;
19219;SDS011;9744;49.364;7.484;2024-03-23T13:03:13;4.50;;;1.95;;
19219;SDS011;9744;49.364;7.484;2024-03-23T13:05:40;5.95;;;1.65;;
19219;SDS011;9744;49.364;7.484;2024-03-23T13:08:08;7.72;;;2.38;;
19219;SDS011;9744;49.364;7.484;2024-03-23T13:10:36;5.38;;;2.03;;
19219;SDS011;9744;49.364;7.484;2024-03-23T13:13:04;3.40;;;1.33;;
19219;SDS011;9744;49.364;7.484;2024-03-23T13:15:33;5.53;;;1.23;;
19219;SDS011;9744;49.364;7.484;2024-03-23T13:18:00;4.82;;;1.58;;
19219;SDS011;9744;49.364;7.484;2024-03-23T13:20:26;8.23;;;1.77;;
19219;SDS011;9744;49.364;7.484;2024-03-23T13:22:53;4.07;;;1.13;;
19219;SDS011;9744;49.364;7.484;2024-03-23T13:25:20;4.32;;;0.98;;
19219;SDS011;9744;49.364;7.484;2024-03-23T13:27:49;6.95;;;1.65;;
19219;SDS011;9744;49.364;7.484;2024-03-23T13:30:15;4.28;;;1.58;;
19219;SDS011;9744;49.364;7.484;2024-03-23T13:32:42;6.45;;;1.30;;
19219;SDS011;9744;49.364;7.484;2024-03-23T13:35:08;8.10;;;1.50;;
19219;SDS011;9744;49.364;7.484;2024-03-23T13:37:36;7.07;;;1.40;;
19219;SDS011;9744;49.364;7.484;2024-03-23T13:40:02;4.25;;;1.58;;
19219;SDS011;9744;49.364;7.484;2024-03-23T13:42:30;6.75;;;0.95;;
19219;SDS011;9744;49.364;7.484;2024-03-23T13:44:58;3.13;;;1.30;;
19219;SDS011;9744;49.364;7.484;2024-03-23T13:47:25;1.70;;;0.90;;
19219;SDS011;9744;49.364;7.484;2024-03-23T13:49:52;5.65;;;1.45;;
19219;SDS011;9744;49.364;7.484;2024-03-23T13:52:19;1.95;;;0.65;;
19219;SDS011;9744;49.364;7.484;2024-03-23T13:54:48;2.67;;;0.68;;
19219;SDS011;9744;49.364;7.484;2024-03-23T13:57:15;2.28;;;0.80;;
19219;SDS011;9744;49.364;7.484;2024-03-23T13:59:42;4.35;;;0.75;;
19219;SDS011;9744;49.364;7.484;2024-03-23T14:02:11;1.55;;;0.60;;
19219;SDS011;9744;49.364;7.484;2024-03-23T14:04:40;3.65;;;0.80;;
19219;SDS011;9744;49.364;7.484;2024-03-23T14:07:07;7.47;;;0.77;;
19219;SDS011;9744;49.364;7.484;2024-03-23T14:09:34;6.35;;;1.10;;
19219;SDS011;9744;49.364;7.484;2024-03-23T14:12:01;2.83;;;0.90;;
19219;SDS011;9744;49.364;7.484;2024-03-23T14:14:28;2.10;;;0.85;;
19219;SDS011;9744;49.364;7.484;2024-03-23T14:16:56;3.78;;;1.02;;
19219;SDS011;9744;49.364;7.484;2024-03-23T14:19:23;3.70;;;1.05;;
19219;SDS011;9744;49.364;7.484;2024-03-23T14:21:51;2.38;;;0.80;;
19219;SDS011;9744;49.364;7.484;2024-03-23T14:24:17;4.38;;;0.90;;
19219;SDS011;9744;49.364;7.484;2024-03-23T14:26:44;1.38;;;0.70;;
19219;SDS011;9744;49.364;7.484;2024-03-23T14:29:11;7.82;;;2.17;;
19219;SDS011;9744;49.364;7.484;2024-03-23T14:31:39;8.18;;;1.48;;
19219;SDS011;9744;49.364;7.484;2024-03-23T14:34:05;5.68;;;1.20;;
19219;SDS011;9744;49.364;7.484;2024-03-23T14:36:34;5.00;;;0.80;;
19219;SDS011;9744;49.364;7.484;2024-03-23T14:39:01;6.10;;;1.63;;
19219;SDS011;9744;49.364;7.484;2024-03-23T14:41:29;3.50;;;0.95;;
19219;SDS011;9744;49.364;7.484;2024-03-23T14:43:56;2.08;;;0.40;;
19219;SDS011;9744;49.364;7.484;2024-03-23T14:46:26;0.50;;;0.50;;
19219;SDS011;9744;49.364;7.484;2024-03-23T14:51:27;1.75;;;0.65;;
19219;SDS011;9744;49.364;7.484;2024-03-23T14:53:57;1.77;;;0.60;;
19219;SDS011;9744;49.364;7.484;2024-03-23T14:56:23;2.47;;;0.40;;
19219;SDS011;9744;49.364;7.484;2024-03-23T14:58:52;2.63;;;0.40;;
19219;SDS011;9744;49.364;7.484;2024-03-23T15:03:55;0.63;;;0.38;;
19219;SDS011;9744;49.364;7.484;2024-03-23T15:06:22;0.50;;;0.50;;
19219;SDS011;9744;49.364;7.484;2024-03-23T15:11:41;6.30;;;1.48;;
19219;SDS011;9744;49.364;7.484;2024-03-23T15:14:08;2.10;;;0.90;;
19219;SDS011;9744;49.364;7.484;2024-03-23T15:16:36;2.03;;;0.73;;
19219;SDS011;9744;49.364;7.484;2024-03-23T15:19:03;5.07;;;0.75;;
19219;SDS011;9744;49.364;7.484;2024-03-23T15:24:20;2.15;;;0.82;;
19219;SDS011;9744;49.364;7.484;2024-03-23T15:26:49;4.65;;;1.02;;
19219;SDS011;9744;49.364;7.484;2024-03-23T15:29:17;2.67;;;0.70;;
19219;SDS011;9744;49.364;7.484;2024-03-23T15:31:44;1.73;;;0.88;;
19219;SDS011;9744;49.364;7.484;2024-03-23T15:34:11;4.22;;;1.17;;
19219;SDS011;9744;49.364;7.484;2024-03-23T15:36:39;4.07;;;1.25;;
19219;SDS011;9744;49.364;7.484;2024-03-23T15:47:15;1.52;;;0.80;;
19219;SDS011;9744;49.364;7.484;2024-03-23T15:49:42;2.90;;;1.02;;
19219;SDS011;9744;49.364;7.484;2024-03-23T15:52:09;2.25;;;0.80;;
19219;SDS011;9744;49.364;7.484;2024-03-23T15:54:37;1.05;;;0.75;;
19219;SDS011;9744;49.364;7.484;2024-03-23T15:57:03;1.27;;;0.63;;
19219;SDS011;9744;49.364;7.484;2024-03-23T15:59:35;2.42;;;0.50;;
19219;SDS011;9744;49.364;7.484;2024-03-23T16:02:06;2.20;;;0.95;;
19219;SDS011;9744;49.364;7.484;2024-03-23T16:04:35;3.65;;;1.63;;
19219;SDS011;9744;49.364;7.484;2024-03-23T16:07:03;3.17;;;2.10;;
19219;SDS011;9744;49.364;7.484;2024-03-23T16:09:31;2.13;;;0.98;;
19219;SDS011;9744;49.364;7.484;2024-03-23T16:11:57;3.33;;;1.20;;
19219;SDS011;9744;49.364;7.484;2024-03-23T16:14:26;2.20;;;1.17;;
19219;SDS011;9744;49.364;7.484;2024-03-23T16:16:52;2.80;;;0.98;;
19219;SDS011;9744;49.364;7.484;2024-03-23T16:19:21;1.67;;;1.10;;
19219;SDS011;9744;49.364;7.484;2024-03-23T16:21:49;1.33;;;1.00;;
19219;SDS011;9744;49.364;7.484;2024-03-23T16:24:16;3.50;;;1.20;;
19219;SDS011;9744;49.364;7.484;2024-03-23T16:29:15;1.80;;;0.73;;
19219;SDS011;9744;49.364;7.484;2024-03-23T16:31:42;2.63;;;1.20;;
19219;SDS011;9744;49.364;7.484;2024-03-23T16:34:09;9.10;;;1.40;;
19219;SDS011;9744;49.364;7.484;2024-03-23T16:36:36;5.45;;;1.40;;
19219;SDS011;9744;49.364;7.484;2024-03-23T16:39:05;5.75;;;1.20;;
19219;SDS011;9744;49.364;7.484;2024-03-23T16:41:32;3.33;;;1.23;;
19219;SDS011;9744;49.364;7.484;2024-03-23T16:44:00;6.55;;;1.40;;
19219;SDS011;9744;49.364;7.484;2024-03-23T16:46:27;1.80;;;1.00;;
19219;SDS011;9744;49.364;7.484;2024-03-23T16:48:56;1.50;;;0.95;;
19219;SDS011;9744;49.364;7.484;2024-03-23T16:51:22;5.20;;;1.33;;
19219;SDS011;9744;49.364;7.484;2024-03-23T16:53:53;5.53;;;2.35;;
19219;SDS011;9744;49.364;7.484;2024-03-23T16:56:24;4.18;;;1.35;;
19219;SDS011;9744;49.364;7.484;2024-03-23T16:58:52;6.15;;;1.45;;
19219;SDS011;9744;49.364;7.484;2024-03-23T17:01:20;7.25;;;1.70;;
19219;SDS011;9744;49.364;7.484;2024-03-23T17:03:50;8.50;;;1.80;;
19219;SDS011;9744;49.364;7.484;2024-03-23T17:06:19;10.77;;;2.15;;
19219;SDS011;9744;49.364;7.484;2024-03-23T17:08:48;7.85;;;2.30;;
19219;SDS011;9744;49.364;7.484;2024-03-23T17:11:15;8.88;;;2.08;;
19219;SDS011;9744;49.364;7.484;2024-03-23T17:13:45;6.18;;;2.13;;
19219;SDS011;9744;49.364;7.484;2024-03-23T17:16:12;5.55;;;1.42;;
19219;SDS011;9744;49.364;7.484;2024-03-23T17:18:40;5.88;;;1.73;;
19219;SDS011;9744;49.364;7.484;2024-03-23T17:21:07;5.80;;;2.03;;
19219;SDS011;9744;49.364;7.484;2024-03-23T17:23:34;4.00;;;1.80;;
19219;SDS011;9744;49.364;7.484;2024-03-23T17:26:01;7.70;;;1.70;;
19219;SDS011;9744;49.364;7.484;2024-03-23T17:28:28;6.40;;;1.65;;
19219;SDS011;9744;49.364;7.484;2024-03-23T17:30:55;6.18;;;1.80;;
19219;SDS011;9744;49.364;7.484;2024-03-23T17:33:23;3.75;;;1.70;;
19219;SDS011;9744;49.364;7.484;2024-03-23T17:35:49;6.90;;;1.98;;
19219;SDS011;9744;49.364;7.484;2024-03-23T17:38:17;7.95;;;1.27;;
19219;SDS011;9744;49.364;7.484;2024-03-23T17:40:44;4.63;;;2.33;;
19219;SDS011;9744;49.364;7.484;2024-03-23T17:43:13;4.53;;;1.70;;
19219;SDS011;9744;49.364;7.484;2024-03-23T17:45:39;3.17;;;1.45;;
19219;SDS011;9744;49.364;7.484;2024-03-23T17:48:08;4.40;;;1.33;;
19219;SDS011;9744;49.364;7.484;2024-03-23T17:50:34;4.18;;;1.50;;
19219;SDS011;9744;49.364;7.484;2024-03-23T17:53:01;5.13;;;1.50;;
19219;SDS011;9744;49.364;7.484;2024-03-23T17:55:27;4.55;;;1.60;;
19219;SDS011;9744;49.364;7.484;2024-03-23T17:57:54;5.38;;;1.50;;
19219;SDS011;9744;49.364;7.484;2024-03-23T18:00:23;5.68;;;2.03;;